sensor_id;sensor_type;location;lat;lon;timestamp;pressure;altitude;pressure_sealevel;temperature;humidity
72558;BME280;60583;50.094;8.748;2023-05-20T00:00:27;100856.75;;;14.21;59.60
72558;BME280;60583;50.094;8.748;2023-05-20T00:02:52;100852.22;;;14.22;60.30
72558;BME280;60583;50.094;8.748;2023-05-20T00:05:18;100860.03;;;14.23;60.60
72558;BME280;60583;50.094;8.748;2023-05-20T00:07:43;100863.31;;;14.25;60.51
72558;BME280;60583;50.094;8.748;2023-05-20T00:10:09;100854.84;;;14.28;60.54
72558;BME280;60583;50.094;8.748;2023-05-20T00:12:36;100853.22;;;14.27;60.63
72558;BME280;60583;50.094;8.748;2023-05-20T00:15:03;100853.41;;;14.26;60.88
72558;BME280;60583;50.094;8.748;2023-05-20T00:17:28;100855.09;;;14.27;60.99
72558;BME280;60583;50.094;8.748;2023-05-20T00:19:57;100838.19;;;14.20;61.17
72558;BME280;60583;50.094;8.748;2023-05-20T00:22:24;100831.97;;;14.26;61.05
72558;BME280;60583;50.094;8.748;2023-05-20T00:24:49;100818.19;;;14.09;61.54
72558;BME280;60583;50.094;8.748;2023-05-20T00:27:15;100824.59;;;14.08;61.54
72558;BME280;60583;50.094;8.748;2023-05-20T00:29:40;100851.19;;;14.16;62.11
72558;BME280;60583;50.094;8.748;2023-05-20T00:32:06;100849.09;;;14.18;62.18
72558;BME280;60583;50.094;8.748;2023-05-20T00:34:31;100842.31;;;14.16;62.44
72558;BME280;60583;50.094;8.748;2023-05-20T00:36:57;100838.41;;;14.12;62.76
72558;BME280;60583;50.094;8.748;2023-05-20T00:39:22;100835.72;;;14.12;62.63
72558;BME280;60583;50.094;8.748;2023-05-20T00:41:47;100846.03;;;14.15;62.51
72558;BME280;60583;50.094;8.748;2023-05-20T00:44:13;100829.94;;;14.15;62.70
72558;BME280;60583;50.094;8.748;2023-05-20T00:46:38;100818.84;;;13.91;63.20
72558;BME280;60583;50.094;8.748;2023-05-20T00:49:04;100840.69;;;14.01;63.36
72558;BME280;60583;50.094;8.748;2023-05-20T00:51:30;100834.09;;;13.97;63.71
72558;BME280;60583;50.094;8.748;2023-05-20T00:53:56;100838.66;;;13.97;63.96
72558;BME280;60583;50.094;8.748;2023-05-20T00:56:22;100826.06;;;13.91;63.95
72558;BME280;60583;50.094;8.748;2023-05-20T00:58:48;100838.44;;;13.98;64.14
72558;BME280;60583;50.094;8.748;2023-05-20T01:01:14;100833.09;;;13.92;63.93
72558;BME280;60583;50.094;8.748;2023-05-20T01:03:39;100832.69;;;13.88;65.06
72558;BME280;60583;50.094;8.748;2023-05-20T01:06:05;100825.06;;;13.79;65.06
72558;BME280;60583;50.094;8.748;2023-05-20T01:08:30;100828.75;;;13.91;64.83
72558;BME280;60583;50.094;8.748;2023-05-20T01:11:07;100809.41;;;13.69;65.31
72558;BME280;60583;50.094;8.748;2023-05-20T01:13:44;100831.03;;;13.81;65.74
72558;BME280;60583;50.094;8.748;2023-05-20T01:16:10;100828.78;;;13.84;65.72
72558;BME280;60583;50.094;8.748;2023-05-20T01:18:37;100834.94;;;13.85;65.52
72558;BME280;60583;50.094;8.748;2023-05-20T01:21:04;100802.22;;;13.57;66.36
72558;BME280;60583;50.094;8.748;2023-05-20T01:23:39;100827.31;;;13.75;66.03
72558;BME280;60583;50.094;8.748;2023-05-20T01:26:05;100788.78;;;13.63;66.04
72558;BME280;60583;50.094;8.748;2023-05-20T01:28:31;100822.19;;;13.87;66.08
72558;BME280;60583;50.094;8.748;2023-05-20T01:30:59;100809.41;;;13.69;66.18
72558;BME280;60583;50.094;8.748;2023-05-20T01:33:27;100806.53;;;13.64;66.44
72558;BME280;60583;50.094;8.748;2023-05-20T01:35:54;100805.72;;;13.64;66.72
72558;BME280;60583;50.094;8.748;2023-05-20T01:38:22;100794.38;;;13.55;67.07
72558;BME280;60583;50.094;8.748;2023-05-20T01:40:48;100820.13;;;13.76;67.19
72558;BME280;60583;50.094;8.748;2023-05-20T01:43:15;100766.13;;;13.39;67.00
72558;BME280;60583;50.094;8.748;2023-05-20T01:45:41;100814.16;;;13.54;67.40
72558;BME280;60583;50.094;8.748;2023-05-20T01:48:09;100811.88;;;13.58;67.58
72558;BME280;60583;50.094;8.748;2023-05-20T01:50:36;100780.56;;;13.45;67.75
72558;BME280;60583;50.094;8.748;2023-05-20T01:53:01;100779.31;;;13.48;67.91
72558;BME280;60583;50.094;8.748;2023-05-20T01:55:27;100791.06;;;13.53;67.94
72558;BME280;60583;50.094;8.748;2023-05-20T01:57:52;100799.53;;;13.57;68.06
72558;BME280;60583;50.094;8.748;2023-05-20T02:00:18;100783.47;;;13.43;68.66
72558;BME280;60583;50.094;8.748;2023-05-20T02:02:43;100768.63;;;13.34;68.52
72558;BME280;60583;50.094;8.748;2023-05-20T02:05:12;100781.00;;;13.49;68.54
72558;BME280;60583;50.094;8.748;2023-05-20T02:07:37;100789.63;;;13.57;68.11
72558;BME280;60583;50.094;8.748;2023-05-20T02:10:03;100785.72;;;13.53;68.33
72558;BME280;60583;50.094;8.748;2023-05-20T02:12:28;100784.25;;;13.64;68.05
72558;BME280;60583;50.094;8.748;2023-05-20T02:14:54;100751.31;;;13.43;68.20
72558;BME280;60583;50.094;8.748;2023-05-20T02:17:20;100771.50;;;13.59;68.03
72558;BME280;60583;50.094;8.748;2023-05-20T02:19:45;100790.47;;;13.64;68.12
72558;BME280;60583;50.094;8.748;2023-05-20T02:22:11;100766.75;;;13.48;68.71
72558;BME280;60583;50.094;8.748;2023-05-20T02:24:36;100781.81;;;13.49;68.96
72558;BME280;60583;50.094;8.748;2023-05-20T02:27:02;100785.72;;;13.53;69.16
72558;BME280;60583;50.094;8.748;2023-05-20T02:29:29;100790.06;;;13.54;69.08
72558;BME280;60583;50.094;8.748;2023-05-20T02:31:54;100780.97;;;13.62;68.50
72558;BME280;60583;50.094;8.748;2023-05-20T02:34:20;100784.69;;;13.61;68.63
72558;BME280;60583;50.094;8.748;2023-05-20T02:36:45;100782.59;;;13.63;68.56
72558;BME280;60583;50.094;8.748;2023-05-20T02:39:11;100775.63;;;13.55;68.80
72558;BME280;60583;50.094;8.748;2023-05-20T02:41:37;100779.13;;;13.56;69.14
72558;BME280;60583;50.094;8.748;2023-05-20T02:44:02;100781.78;;;13.62;68.87
72558;BME280;60583;50.094;8.748;2023-05-20T02:46:27;100787.53;;;13.72;68.58
72558;BME280;60583;50.094;8.748;2023-05-20T02:48:53;100788.38;;;13.79;68.41
72558;BME280;60583;50.094;8.748;2023-05-20T02:51:18;100776.00;;;13.72;68.92
72558;BME280;60583;50.094;8.748;2023-05-20T02:53:44;100788.38;;;13.79;69.41
72558;BME280;60583;50.094;8.748;2023-05-20T02:56:10;100788.97;;;13.75;68.74
72558;BME280;60583;50.094;8.748;2023-05-20T02:58:35;100773.13;;;13.73;68.58
72558;BME280;60583;50.094;8.748;2023-05-20T03:01:01;100747.38;;;13.59;68.94
72558;BME280;60583;50.094;8.748;2023-05-20T03:03:27;100778.44;;;13.86;68.91
72558;BME280;60583;50.094;8.748;2023-05-20T03:05:53;100781.75;;;13.88;68.88
72558;BME280;60583;50.094;8.748;2023-05-20T03:08:20;100761.56;;;13.79;68.90
72558;BME280;60583;50.094;8.748;2023-05-20T03:10:46;100774.31;;;13.77;69.63
72558;BME280;60583;50.094;8.748;2023-05-20T03:13:13;100760.13;;;13.70;69.47
72558;BME280;60583;50.094;8.748;2023-05-20T03:15:42;100752.91;;;13.71;69.62
72558;BME280;60583;50.094;8.748;2023-05-20T03:18:09;100752.50;;;13.67;69.69
72558;BME280;60583;50.094;8.748;2023-05-20T03:20:35;100740.59;;;13.57;70.18
72558;BME280;60583;50.094;8.748;2023-05-20T03:23:03;100737.28;;;13.48;70.34
72558;BME280;60583;50.094;8.748;2023-05-20T03:25:28;100734.84;;;13.47;70.48
72558;BME280;60583;50.094;8.748;2023-05-20T03:27:54;100742.44;;;13.56;70.34
72558;BME280;60583;50.094;8.748;2023-05-20T03:30:19;100722.88;;;13.49;70.40
72558;BME280;60583;50.094;8.748;2023-05-20T03:32:45;100740.38;;;13.52;70.94
72558;BME280;60583;50.094;8.748;2023-05-20T03:35:10;100742.44;;;13.43;71.40
72558;BME280;60583;50.094;8.748;2023-05-20T03:37:36;100732.56;;;13.37;71.04
72558;BME280;60583;50.094;8.748;2023-05-20T03:40:02;100751.91;;;13.59;70.98
72558;BME280;60583;50.094;8.748;2023-05-20T03:42:31;100746.75;;;13.57;71.23
72558;BME280;60583;50.094;8.748;2023-05-20T03:44:56;100739.34;;;13.53;71.12
72558;BME280;60583;50.094;8.748;2023-05-20T03:47:22;100724.09;;;13.53;71.36
72558;BME280;60583;50.094;8.748;2023-05-20T03:49:47;100712.97;;;13.43;71.17
72558;BME280;60583;50.094;8.748;2023-05-20T03:52:12;100726.53;;;13.55;71.15
72558;BME280;60583;50.094;8.748;2023-05-20T03:54:38;100755.81;;;13.69;71.21
72558;BME280;60583;50.094;8.748;2023-05-20T03:57:03;100758.28;;;13.71;71.36
72558;BME280;60583;50.094;8.748;2023-05-20T03:59:29;100756.41;;;13.78;70.96
72558;BME280;60583;50.094;8.748;2023-05-20T04:01:54;100761.94;;;13.83;70.99
72558;BME280;60583;50.094;8.748;2023-05-20T04:04:21;100754.31;;;13.86;70.59
72558;BME280;60583;50.094;8.748;2023-05-20T04:06:47;100758.63;;;13.94;70.53
72558;BME280;60583;50.094;8.748;2023-05-20T04:09:12;100758.22;;;13.90;70.53
72558;BME280;60583;50.094;8.748;2023-05-20T04:11:38;100754.94;;;13.88;70.64
72558;BME280;60583;50.094;8.748;2023-05-20T04:14:03;100745.25;;;13.81;70.82
72558;BME280;60583;50.094;8.748;2023-05-20T04:16:28;100758.41;;;13.95;70.73
72558;BME280;60583;50.094;8.748;2023-05-20T04:18:54;100740.53;;;13.76;71.08
72558;BME280;60583;50.094;8.748;2023-05-20T04:21:20;100743.41;;;13.81;71.06
72558;BME280;60583;50.094;8.748;2023-05-20T04:23:46;100754.50;;;13.91;70.81
72558;BME280;60583;50.094;8.748;2023-05-20T04:26:11;100764.63;;;13.89;71.57
72558;BME280;60583;50.094;8.748;2023-05-20T04:28:37;100763.16;;;13.93;71.36
72558;BME280;60583;50.094;8.748;2023-05-20T04:31:03;100761.50;;;13.99;71.02
72558;BME280;60583;50.094;8.748;2023-05-20T04:33:29;100747.94;;;13.81;71.33
72558;BME280;60583;50.094;8.748;2023-05-20T04:35:55;100757.81;;;13.93;71.63
72558;BME280;60583;50.094;8.748;2023-05-20T04:38:24;100762.94;;;14.01;71.34
72558;BME280;60583;50.094;8.748;2023-05-20T04:40:57;100756.31;;;14.04;71.19
72558;BME280;60583;50.094;8.748;2023-05-20T04:43:26;100731.59;;;13.95;71.04
72558;BME280;60583;50.094;8.748;2023-05-20T04:45:54;100767.25;;;14.09;71.55
72558;BME280;60583;50.094;8.748;2023-05-20T04:48:20;100757.34;;;14.10;71.21
72558;BME280;60583;50.094;8.748;2023-05-20T04:50:47;100720.69;;;13.90;71.18
72558;BME280;60583;50.094;8.748;2023-05-20T04:53:14;100750.69;;;14.19;71.28
72558;BME280;60583;50.094;8.748;2023-05-20T04:55:40;100740.84;;;14.06;71.47
72558;BME280;60583;50.094;8.748;2023-05-20T04:58:05;100748.25;;;14.11;70.97
72558;BME280;60583;50.094;8.748;2023-05-20T05:00:32;100710.38;;;13.87;71.43
72558;BME280;60583;50.094;8.748;2023-05-20T05:02:57;100753.56;;;14.24;71.68
72558;BME280;60583;50.094;8.748;2023-05-20T05:05:23;100761.19;;;14.20;71.45
72558;BME280;60583;50.094;8.748;2023-05-20T05:07:48;100723.91;;;14.05;71.65
72558;BME280;60583;50.094;8.748;2023-05-20T05:10:13;100724.72;;;14.13;71.04
72558;BME280;60583;50.094;8.748;2023-05-20T05:12:40;100748.16;;;14.37;71.45
72558;BME280;60583;50.094;8.748;2023-05-20T05:15:05;100741.13;;;14.36;71.57
72558;BME280;60583;50.094;8.748;2023-05-20T05:17:31;100716.81;;;14.31;71.78
72558;BME280;60583;50.094;8.748;2023-05-20T05:19:56;100707.75;;;14.32;70.95
72558;BME280;60583;50.094;8.748;2023-05-20T05:22:22;100727.06;;;14.40;71.45
72558;BME280;60583;50.094;8.748;2023-05-20T05:24:47;100721.72;;;14.40;71.90
72558;BME280;60583;50.094;8.748;2023-05-20T05:27:12;100732.00;;;14.50;71.95
72558;BME280;60583;50.094;8.748;2023-05-20T05:29:38;100725.56;;;14.57;71.03
72558;BME280;60583;50.094;8.748;2023-05-20T05:32:04;100691.22;;;14.35;70.93
72558;BME280;60583;50.094;8.748;2023-05-20T05:34:29;100729.25;;;14.56;71.40
72558;BME280;60583;50.094;8.748;2023-05-20T05:36:55;100713.41;;;14.55;71.02
72558;BME280;60583;50.094;8.748;2023-05-20T05:39:20;100727.41;;;14.57;71.23
72558;BME280;60583;50.094;8.748;2023-05-20T05:41:46;100697.78;;;14.39;71.58
72558;BME280;60583;50.094;8.748;2023-05-20T05:44:11;100717.53;;;14.51;71.23
72558;BME280;60583;50.094;8.748;2023-05-20T05:46:37;100726.63;;;14.50;71.53
72558;BME280;60583;50.094;8.748;2023-05-20T05:49:02;100687.09;;;14.26;71.92
72558;BME280;60583;50.094;8.748;2023-05-20T05:51:27;100708.13;;;14.35;72.12
72558;BME280;60583;50.094;8.748;2023-05-20T05:53:53;100712.59;;;14.48;71.70
72558;BME280;60583;50.094;8.748;2023-05-20T05:56:18;100703.34;;;14.44;71.56
72558;BME280;60583;50.094;8.748;2023-05-20T05:58:44;100734.75;;;14.68;70.90
72558;BME280;60583;50.094;8.748;2023-05-20T06:01:09;100734.31;;;14.71;71.69
72558;BME280;60583;50.094;8.748;2023-05-20T06:03:35;100733.97;;;14.61;71.45
72558;BME280;60583;50.094;8.748;2023-05-20T06:06:01;100684.72;;;14.49;71.18
72558;BME280;60583;50.094;8.748;2023-05-20T06:08:26;100719.78;;;14.85;71.08
72558;BME280;60583;50.094;8.748;2023-05-20T06:10:51;100739.00;;;14.82;71.03
72558;BME280;60583;50.094;8.748;2023-05-20T06:13:17;100714.88;;;14.76;70.96
72558;BME280;60583;50.094;8.748;2023-05-20T06:15:43;100729.63;;;14.91;71.30
72558;BME280;60583;50.094;8.748;2023-05-20T06:18:11;100719.78;;;14.85;71.22
72558;BME280;60583;50.094;8.748;2023-05-20T06:20:36;100690.84;;;14.62;71.37
72558;BME280;60583;50.094;8.748;2023-05-20T06:23:01;100728.47;;;14.81;71.99
72558;BME280;60583;50.094;8.748;2023-05-20T06:25:27;100716.94;;;14.80;71.92
72558;BME280;60583;50.094;8.748;2023-05-20T06:27:52;100689.84;;;14.57;72.36
72558;BME280;60583;50.094;8.748;2023-05-20T06:30:18;100712.34;;;14.87;71.60
72558;BME280;60583;50.094;8.748;2023-05-20T06:32:44;100728.78;;;14.97;71.45
72558;BME280;60583;50.094;8.748;2023-05-20T06:35:09;100736.09;;;15.08;71.60
72558;BME280;60583;50.094;8.748;2023-05-20T06:37:35;100726.25;;;15.02;71.31
72558;BME280;60583;50.094;8.748;2023-05-20T06:40:01;100698.81;;;15.00;71.18
72558;BME280;60583;50.094;8.748;2023-05-20T06:42:26;100718.31;;;14.89;71.96
72558;BME280;60583;50.094;8.748;2023-05-20T06:44:51;100714.91;;;15.00;71.86
72558;BME280;60583;50.094;8.748;2023-05-20T06:47:17;100705.59;;;15.03;71.47
72558;BME280;60583;50.094;8.748;2023-05-20T06:49:43;100717.31;;;15.08;71.47
72558;BME280;60583;50.094;8.748;2023-05-20T06:52:08;100713.75;;;15.14;71.20
72558;BME280;60583;50.094;8.748;2023-05-20T06:54:34;100712.25;;;15.18;71.19
72558;BME280;60583;50.094;8.748;2023-05-20T06:57:05;100713.69;;;15.21;71.06
72558;BME280;60583;50.094;8.748;2023-05-20T06:59:30;100714.00;;;15.31;70.50
72558;BME280;60583;50.094;8.748;2023-05-20T07:01:56;100703.75;;;15.21;70.35
72558;BME280;60583;50.094;8.748;2023-05-20T07:04:21;100710.78;;;15.22;70.89
72558;BME280;60583;50.094;8.748;2023-05-20T07:06:46;100689.41;;;15.09;70.87
72558;BME280;60583;50.094;8.748;2023-05-20T07:09:12;100702.97;;;15.39;70.72
72558;BME280;60583;50.094;8.748;2023-05-20T07:11:37;100703.94;;;15.45;70.37
72558;BME280;60583;50.094;8.748;2023-05-20T07:14:02;100699.00;;;15.48;70.63
72558;BME280;60583;50.094;8.748;2023-05-20T07:16:28;100703.38;;;15.61;70.19
72558;BME280;60583;50.094;8.748;2023-05-20T07:18:54;100642.38;;;15.43;69.29
72558;BME280;60583;50.094;8.748;2023-05-20T07:21:19;100702.66;;;15.90;68.73
72558;BME280;60583;50.094;8.748;2023-05-20T07:23:45;100707.44;;;15.88;69.36
72558;BME280;60583;50.094;8.748;2023-05-20T07:26:10;100708.47;;;16.05;69.25
72558;BME280;60583;50.094;8.748;2023-05-20T07:28:37;100682.59;;;16.04;68.07
72558;BME280;60583;50.094;8.748;2023-05-20T07:31:03;100680.97;;;16.03;68.37
72558;BME280;60583;50.094;8.748;2023-05-20T07:33:28;100695.41;;;16.50;68.21
72558;BME280;60583;50.094;8.748;2023-05-20T07:35:54;100690.34;;;16.72;67.13
72558;BME280;60583;50.094;8.748;2023-05-20T07:38:20;100685.22;;;16.82;65.77
72558;BME280;60583;50.094;8.748;2023-05-20T07:40:45;100673.06;;;16.91;66.10
72558;BME280;60583;50.094;8.748;2023-05-20T07:43:11;100658.41;;;16.75;66.18
72558;BME280;60583;50.094;8.748;2023-05-20T07:45:36;100666.50;;;16.98;65.43
72558;BME280;60583;50.094;8.748;2023-05-20T07:48:02;100660.19;;;17.16;64.97
72558;BME280;60583;50.094;8.748;2023-05-20T07:50:28;100627.50;;;17.01;63.87
72558;BME280;60583;50.094;8.748;2023-05-20T07:52:53;100623.84;;;17.30;63.43
72558;BME280;60583;50.094;8.748;2023-05-20T07:55:19;100651.84;;;17.52;62.33
72558;BME280;60583;50.094;8.748;2023-05-20T07:57:44;100644.56;;;17.53;62.89
72558;BME280;60583;50.094;8.748;2023-05-20T08:00:10;100639.31;;;17.23;63.20
72558;BME280;60583;50.094;8.748;2023-05-20T08:02:36;100662.75;;;17.34;63.13
72558;BME280;60583;50.094;8.748;2023-05-20T08:05:02;100657.84;;;17.54;62.76
72558;BME280;60583;50.094;8.748;2023-05-20T08:07:27;100655.59;;;17.28;62.98
72558;BME280;60583;50.094;8.748;2023-05-20T08:09:53;100655.38;;;17.64;62.66
72558;BME280;60583;50.094;8.748;2023-05-20T08:12:18;100653.41;;;17.88;62.26
72558;BME280;60583;50.094;8.748;2023-05-20T08:14:44;100643.88;;;17.97;61.76
72558;BME280;60583;50.094;8.748;2023-05-20T08:17:09;100603.97;;;17.71;61.33
72558;BME280;60583;50.094;8.748;2023-05-20T08:19:34;100654.69;;;17.85;61.54
72558;BME280;60583;50.094;8.748;2023-05-20T08:22:00;100662.00;;;17.73;62.00
72558;BME280;60583;50.094;8.748;2023-05-20T08:24:26;100633.22;;;17.39;62.87
72558;BME280;60583;50.094;8.748;2023-05-20T08:26:52;100648.91;;;17.42;62.46
72558;BME280;60583;50.094;8.748;2023-05-20T08:29:17;100646.91;;;17.49;63.18
72558;BME280;60583;50.094;8.748;2023-05-20T08:31:43;100658.75;;;17.48;63.48
72558;BME280;60583;50.094;8.748;2023-05-20T08:34:08;100650.91;;;17.58;63.13
72558;BME280;60583;50.094;8.748;2023-05-20T08:36:33;100638.44;;;17.69;62.98
72558;BME280;60583;50.094;8.748;2023-05-20T08:39:00;100625.41;;;18.06;62.59
72558;BME280;60583;50.094;8.748;2023-05-20T08:41:25;100590.38;;;18.39;61.54
72558;BME280;60583;50.094;8.748;2023-05-20T08:43:52;100644.06;;;19.19;60.20
72558;BME280;60583;50.094;8.748;2023-05-20T08:46:17;100641.66;;;19.00;58.48
72558;BME280;60583;50.094;8.748;2023-05-20T08:48:44;100617.47;;;19.10;59.41
72558;BME280;60583;50.094;8.748;2023-05-20T08:51:10;100637.91;;;19.61;58.83
72558;BME280;60583;50.094;8.748;2023-05-20T08:53:36;100639.06;;;19.65;57.18
72558;BME280;60583;50.094;8.748;2023-05-20T08:56:01;100650.91;;;19.81;56.89
72558;BME280;60583;50.094;8.748;2023-05-20T08:58:31;100633.78;;;19.76;56.20
72558;BME280;60583;50.094;8.748;2023-05-20T09:00:59;100647.13;;;19.82;56.17
72558;BME280;60583;50.094;8.748;2023-05-20T09:03:25;100633.47;;;19.72;57.00
72558;BME280;60583;50.094;8.748;2023-05-20T09:05:51;100636.69;;;20.17;57.41
72558;BME280;60583;50.094;8.748;2023-05-20T09:08:17;100640.50;;;20.43;55.44
72558;BME280;60583;50.094;8.748;2023-05-20T09:10:43;100594.50;;;19.73;56.85
72558;BME280;60583;50.094;8.748;2023-05-20T09:13:09;100621.63;;;19.56;57.23
72558;BME280;60583;50.094;8.748;2023-05-20T09:15:35;100624.41;;;19.23;57.74
72558;BME280;60583;50.094;8.748;2023-05-20T09:18:02;100635.59;;;19.92;57.89
72558;BME280;60583;50.094;8.748;2023-05-20T09:20:28;100620.31;;;20.07;56.78
72558;BME280;60583;50.094;8.748;2023-05-20T09:22:58;100628.97;;;20.26;56.48
72558;BME280;60583;50.094;8.748;2023-05-20T09:25:24;100609.59;;;20.17;55.71
72558;BME280;60583;50.094;8.748;2023-05-20T09:27:49;100626.34;;;20.14;56.43
72558;BME280;60583;50.094;8.748;2023-05-20T09:30:18;100627.22;;;20.20;56.08
72558;BME280;60583;50.094;8.748;2023-05-20T09:32:44;100620.59;;;20.06;57.11
72558;BME280;60583;50.094;8.748;2023-05-20T09:35:12;100601.31;;;20.02;56.79
72558;BME280;60583;50.094;8.748;2023-05-20T09:37:41;100619.81;;;20.10;56.70
72558;BME280;60583;50.094;8.748;2023-05-20T09:40:11;100618.75;;;20.11;56.39
72558;BME280;60583;50.094;8.748;2023-05-20T09:42:40;100624.31;;;20.53;55.36
72558;BME280;60583;50.094;8.748;2023-05-20T09:45:06;100609.09;;;20.20;55.63
72558;BME280;60583;50.094;8.748;2023-05-20T09:47:37;100629.09;;;20.73;54.76
72558;BME280;60583;50.094;8.748;2023-05-20T09:50:06;100602.13;;;20.93;53.04
72558;BME280;60583;50.094;8.748;2023-05-20T09:52:35;100606.44;;;20.89;53.74
72558;BME280;60583;50.094;8.748;2023-05-20T09:55:02;100610.47;;;20.81;53.71
72558;BME280;60583;50.094;8.748;2023-05-20T09:57:32;100605.84;;;20.82;53.36
72558;BME280;60583;50.094;8.748;2023-05-20T09:59:58;100608.88;;;21.32;52.93
72558;BME280;60583;50.094;8.748;2023-05-20T10:02:23;100594.69;;;21.15;52.30
72558;BME280;60583;50.094;8.748;2023-05-20T10:04:51;100610.22;;;21.30;51.91
72558;BME280;60583;50.094;8.748;2023-05-20T10:16:07;100595.91;;;22.11;52.67
72558;BME280;60583;50.094;8.748;2023-05-20T10:21:14;100583.16;;;22.82;48.58
72558;BME280;60583;50.094;8.748;2023-05-20T10:23:40;100591.84;;;22.90;48.12
72558;BME280;60583;50.094;8.748;2023-05-20T10:26:06;100605.97;;;22.46;48.76
72558;BME280;60583;50.094;8.748;2023-05-20T10:28:35;100614.25;;;21.79;50.74
72558;BME280;60583;50.094;8.748;2023-05-20T10:31:01;100587.25;;;22.40;49.67
72558;BME280;60583;50.094;8.748;2023-05-20T10:33:28;100601.22;;;21.14;50.58
72558;BME280;60583;50.094;8.748;2023-05-20T10:35:58;100582.59;;;22.05;49.67
72558;BME280;60583;50.094;8.748;2023-05-20T10:38:24;100583.69;;;22.29;49.90
72558;BME280;60583;50.094;8.748;2023-05-20T10:40:51;100587.81;;;22.72;47.89
72558;BME280;60583;50.094;8.748;2023-05-20T10:43:26;100585.88;;;22.42;49.03
72558;BME280;60583;50.094;8.748;2023-05-20T10:45:56;100576.34;;;22.90;48.08
72558;BME280;60583;50.094;8.748;2023-05-20T10:48:24;100588.31;;;23.78;47.61
72558;BME280;60583;50.094;8.748;2023-05-20T10:50:52;100583.81;;;23.54;46.43
72558;BME280;60583;50.094;8.748;2023-05-20T10:53:21;100587.06;;;23.56;46.71
72558;BME280;60583;50.094;8.748;2023-05-20T10:55:48;100578.22;;;24.28;45.97
72558;BME280;60583;50.094;8.748;2023-05-20T10:58:16;100570.88;;;23.79;45.77
72558;BME280;60583;50.094;8.748;2023-05-20T11:00:42;100563.97;;;24.36;45.88
72558;BME280;60583;50.094;8.748;2023-05-20T11:03:08;100557.69;;;24.69;44.51
72558;BME280;60583;50.094;8.748;2023-05-20T11:05:34;100552.09;;;24.22;44.55
72558;BME280;60583;50.094;8.748;2023-05-20T11:08:05;100535.06;;;24.35;43.63
72558;BME280;60583;50.094;8.748;2023-05-20T11:10:35;100561.22;;;24.98;43.09
72558;BME280;60583;50.094;8.748;2023-05-20T11:13:02;100556.47;;;25.09;42.48
72558;BME280;60583;50.094;8.748;2023-05-20T11:15:28;100537.13;;;24.82;43.04
72558;BME280;60583;50.094;8.748;2023-05-20T11:17:56;100550.09;;;24.32;43.90
72558;BME280;60583;50.094;8.748;2023-05-20T11:20:22;100524.44;;;23.94;43.41
72558;BME280;60583;50.094;8.748;2023-05-20T11:22:52;100550.78;;;22.46;47.77
72558;BME280;60583;50.094;8.748;2023-05-20T11:25:19;100539.13;;;22.75;47.63
72558;BME280;60583;50.094;8.748;2023-05-20T11:27:45;100531.00;;;22.30;47.84
72558;BME280;60583;50.094;8.748;2023-05-20T11:30:12;100546.16;;;21.96;48.43
72558;BME280;60583;50.094;8.748;2023-05-20T11:32:42;100537.41;;;21.84;48.61
72558;BME280;60583;50.094;8.748;2023-05-20T11:35:18;100555.84;;;21.61;49.45
72558;BME280;60583;50.094;8.748;2023-05-20T11:37:44;100563.13;;;20.99;51.56
72558;BME280;60583;50.094;8.748;2023-05-20T11:40:10;100553.88;;;21.47;49.97
72558;BME280;60583;50.094;8.748;2023-05-20T11:42:37;100549.16;;;21.99;49.63
72558;BME280;60583;50.094;8.748;2023-05-20T11:45:02;100552.63;;;21.80;49.52
72558;BME280;60583;50.094;8.748;2023-05-20T11:47:28;100526.00;;;21.67;50.08
72558;BME280;60583;50.094;8.748;2023-05-20T11:49:55;100550.66;;;21.60;50.85
72558;BME280;60583;50.094;8.748;2023-05-20T11:52:20;100541.44;;;21.56;51.42
72558;BME280;60583;50.094;8.748;2023-05-20T11:54:52;100548.72;;;21.50;51.50
72558;BME280;60583;50.094;8.748;2023-05-20T11:57:18;100520.75;;;21.45;50.79
72558;BME280;60583;50.094;8.748;2023-05-20T11:59:43;100531.38;;;21.56;51.03
72558;BME280;60583;50.094;8.748;2023-05-20T12:02:09;100502.69;;;21.86;50.02
72558;BME280;60583;50.094;8.748;2023-05-20T12:04:34;100495.63;;;22.70;48.61
72558;BME280;60583;50.094;8.748;2023-05-20T12:07:00;100543.09;;;23.18;47.36
72558;BME280;60583;50.094;8.748;2023-05-20T12:09:28;100527.91;;;22.97;47.52
72558;BME280;60583;50.094;8.748;2023-05-20T12:11:53;100519.38;;;23.24;46.98
72558;BME280;60583;50.094;8.748;2023-05-20T12:14:20;100466.19;;;22.93;47.18
72558;BME280;60583;50.094;8.748;2023-05-20T12:16:46;100498.91;;;22.62;47.33
72558;BME280;60583;50.094;8.748;2023-05-20T12:19:11;100526.97;;;23.32;46.92
72558;BME280;60583;50.094;8.748;2023-05-20T12:21:37;100516.88;;;23.91;45.80
72558;BME280;60583;50.094;8.748;2023-05-20T12:24:02;100513.25;;;24.01;45.00
72558;BME280;60583;50.094;8.748;2023-05-20T12:26:31;100462.63;;;23.56;45.22
72558;BME280;60583;50.094;8.748;2023-05-20T12:28:57;100521.00;;;23.84;45.19
72558;BME280;60583;50.094;8.748;2023-05-20T12:31:24;100523.97;;;23.87;45.64
72558;BME280;60583;50.094;8.748;2023-05-20T12:33:50;100513.38;;;23.27;46.86
72558;BME280;60583;50.094;8.748;2023-05-20T12:36:15;100528.09;;;23.36;47.23
72558;BME280;60583;50.094;8.748;2023-05-20T12:38:41;100512.75;;;22.15;48.70
72558;BME280;60583;50.094;8.748;2023-05-20T12:41:06;100512.44;;;21.72;49.67
72558;BME280;60583;50.094;8.748;2023-05-20T12:43:32;100492.31;;;21.73;50.50
72558;BME280;60583;50.094;8.748;2023-05-20T12:45:57;100512.50;;;21.97;50.94
72558;BME280;60583;50.094;8.748;2023-05-20T12:48:22;100504.88;;;21.89;50.41
72558;BME280;60583;50.094;8.748;2023-05-20T12:50:48;100487.47;;;21.75;50.33
72558;BME280;60583;50.094;8.748;2023-05-20T12:53:13;100497.69;;;21.52;50.74
72558;BME280;60583;50.094;8.748;2023-05-20T12:55:38;100480.38;;;21.74;50.94